createdAt,value
2023-05-09T00:00:33.188Z,10.15
2023-05-09T00:03:00.182Z,9.32
2023-05-09T00:05:27.200Z,11.77
2023-05-09T00:07:54.026Z,8.98
2023-05-09T00:10:21.014Z,9.77
2023-05-09T00:12:49.466Z,9.48
2023-05-09T00:15:16.620Z,8.43
2023-05-09T00:17:44.756Z,8.77
2023-05-09T00:20:12.791Z,9.18
2023-05-09T00:22:41.125Z,9.48
2023-05-09T00:25:09.410Z,7.03
2023-05-09T00:27:36.247Z,7.95
2023-05-09T00:30:05.069Z,9.38
2023-05-09T00:32:33.287Z,9.93
2023-05-09T00:35:00.275Z,9.43
2023-05-09T00:37:27.129Z,7.90
2023-05-09T00:39:53.961Z,9.00
2023-05-09T00:42:20.913Z,9.55
2023-05-09T00:44:47.768Z,9.88
2023-05-09T00:47:14.599Z,9.88
2023-05-09T00:49:41.492Z,9.35
2023-05-09T00:52:08.363Z,9.45
2023-05-09T00:54:35.238Z,8.75
2023-05-09T00:57:02.321Z,7.97
2023-05-09T00:59:29.295Z,8.48
2023-05-09T01:01:56.176Z,8.70
2023-05-09T01:04:23.086Z,8.45
2023-05-09T01:07:02.445Z,9.25
2023-05-09T01:09:46.184Z,14.43
2023-05-09T01:12:31.221Z,9.57
2023-05-09T01:15:19.150Z,14.82
2023-05-09T01:17:53.813Z,10.60
2023-05-09T01:20:51.976Z,8.48
2023-05-09T01:23:40.341Z,8.70
2023-05-09T01:26:19.747Z,7.82
2023-05-09T01:29:06.378Z,8.13
2023-05-09T01:31:38.267Z,10.32
2023-05-09T01:34:07.460Z,14.38
2023-05-09T01:36:37.293Z,8.60
2023-05-09T01:39:05.920Z,8.43
2023-05-09T01:41:37.017Z,9.00
2023-05-09T01:44:06.902Z,8.05
2023-05-09T01:46:35.409Z,9.88
2023-05-09T01:49:03.690Z,9.00
2023-05-09T01:51:32.063Z,8.52
2023-05-09T01:54:00.395Z,9.85
2023-05-09T01:56:28.020Z,10.40
2023-05-09T01:58:57.574Z,8.95
2023-05-09T02:01:24.922Z,9.15
2023-05-09T02:03:53.210Z,11.63
2023-05-09T02:06:23.275Z,10.85
2023-05-09T02:08:50.960Z,8.63
2023-05-09T02:11:17.885Z,10.95
2023-05-09T02:13:44.767Z,9.45
2023-05-09T02:16:12.293Z,10.90
2023-05-09T02:18:44.936Z,12.45
2023-05-09T02:21:12.195Z,14.05
2023-05-09T02:23:39.116Z,14.32
2023-05-09T02:26:06.647Z,16.58
2023-05-09T02:28:34.311Z,15.80
2023-05-09T02:31:04.592Z,12.90
2023-05-09T02:33:33.000Z,16.83
2023-05-09T02:36:00.853Z,13.65
2023-05-09T02:38:27.802Z,15.35
2023-05-09T02:40:57.966Z,15.32
2023-05-09T02:43:24.933Z,13.80
2023-05-09T02:45:51.955Z,13.32
2023-05-09T02:48:18.797Z,14.45
2023-05-09T02:50:45.983Z,12.65
2023-05-09T02:53:12.821Z,12.73
2023-05-09T02:55:39.693Z,12.18
2023-05-09T02:58:14.352Z,11.18
2023-05-09T03:00:42.189Z,14.90
2023-05-09T03:03:09.429Z,16.73
2023-05-09T03:05:36.514Z,17.90
2023-05-09T03:08:03.515Z,17.50
2023-05-09T03:10:30.353Z,18.60
2023-05-09T03:12:57.296Z,18.25
2023-05-09T03:15:24.179Z,18.85
2023-05-09T03:17:51.124Z,16.70
2023-05-09T03:20:18.210Z,15.77
2023-05-09T03:22:45.050Z,13.07
2023-05-09T03:25:11.978Z,13.98
2023-05-09T03:27:38.851Z,18.48
2023-05-09T03:30:07.020Z,16.27
2023-05-09T03:32:34.010Z,20.95
2023-05-09T03:35:00.825Z,15.57
2023-05-09T03:37:27.706Z,18.33
2023-05-09T03:39:54.531Z,20.77
2023-05-09T03:42:22.286Z,20.30
2023-05-09T03:44:49.117Z,25.85
2023-05-09T03:47:15.924Z,18.13
2023-05-09T03:49:42.753Z,16.40
2023-05-09T03:52:09.620Z,22.65
2023-05-09T03:54:36.447Z,17.40
2023-05-09T03:57:03.547Z,19.30
2023-05-09T03:59:30.484Z,18.13
2023-05-09T04:01:57.972Z,21.67
2023-05-09T04:04:24.988Z,21.48
2023-05-09T04:06:51.858Z,16.45
2023-05-09T04:09:19.342Z,18.92
2023-05-09T04:11:46.679Z,16.38
2023-05-09T04:14:13.514Z,21.40
2023-05-09T04:16:40.419Z,16.77
2023-05-09T04:19:07.329Z,19.90
2023-05-09T04:21:34.313Z,19.38
2023-05-09T04:24:01.260Z,21.50
2023-05-09T04:26:28.216Z,25.33
2023-05-09T04:28:55.058Z,26.42
2023-05-09T04:31:23.184Z,23.05
2023-05-09T04:33:50.230Z,23.10
2023-05-09T04:36:17.156Z,18.65
2023-05-09T04:38:44.131Z,32.38
2023-05-09T04:41:11.085Z,22.95
2023-05-09T04:43:37.941Z,23.45
2023-05-09T04:46:04.812Z,22.48
2023-05-09T04:48:31.682Z,23.33
2023-05-09T04:50:58.599Z,20.42
2023-05-09T04:53:26.044Z,20.52
2023-05-09T04:55:53.541Z,21.77
2023-05-09T04:58:20.689Z,33.33
2023-05-09T05:00:47.560Z,23.20
2023-05-09T05:03:14.393Z,28.15
2023-05-09T05:05:41.696Z,26.00
2023-05-09T05:08:08.572Z,24.38
2023-05-09T05:10:35.608Z,20.85
2023-05-09T05:13:02.751Z,24.85
2023-05-09T05:15:29.616Z,21.25
2023-05-09T05:17:56.638Z,21.80
2023-05-09T05:20:23.614Z,26.98
2023-05-09T05:22:50.623Z,28.50
2023-05-09T05:25:18.913Z,26.38
2023-05-09T05:27:46.191Z,20.45
2023-05-09T05:30:15.568Z,27.13
2023-05-09T05:32:43.646Z,24.05
2023-05-09T05:35:14.121Z,23.73
2023-05-09T05:37:41.797Z,25.13
2023-05-09T05:40:09.273Z,23.33
2023-05-09T05:42:36.305Z,24.48
2023-05-09T05:45:05.885Z,25.17
2023-05-09T05:47:33.747Z,27.13
2023-05-09T05:50:02.458Z,23.17
2023-05-09T05:52:29.706Z,23.50
2023-05-09T05:54:56.638Z,24.75
2023-05-09T05:57:23.421Z,19.70
2023-05-09T05:59:51.275Z,24.55
2023-05-09T06:02:18.550Z,24.65
2023-05-09T06:04:45.408Z,30.70
2023-05-09T06:07:13.908Z,27.40
2023-05-09T06:09:40.879Z,24.38
2023-05-09T06:12:07.888Z,33.03
2023-05-09T06:14:34.725Z,21.25
2023-05-09T06:17:01.754Z,28.90
2023-05-09T06:19:28.812Z,22.52
2023-05-09T06:21:55.720Z,26.20
2023-05-09T06:24:34.408Z,23.33
2023-05-09T06:27:02.538Z,24.55
2023-05-09T06:29:29.443Z,23.92
2023-05-09T06:31:56.282Z,24.25
2023-05-09T06:34:23.139Z,21.42
2023-05-09T06:36:49.984Z,24.33
2023-05-09T06:39:16.849Z,22.02
2023-05-09T06:41:43.657Z,24.08
2023-05-09T06:44:10.562Z,20.63
2023-05-09T06:46:37.731Z,27.45
2023-05-09T06:49:06.049Z,26.98
2023-05-09T06:51:33.146Z,24.50
2023-05-09T06:54:00.017Z,21.58
2023-05-09T06:56:26.988Z,20.08
2023-05-09T06:58:54.064Z,21.02
2023-05-09T07:01:20.961Z,23.30
2023-05-09T07:03:48.505Z,21.55
2023-05-09T07:06:15.797Z,21.00
2023-05-09T07:08:43.030Z,19.23
2023-05-09T07:11:09.841Z,24.88
2023-05-09T07:13:36.807Z,25.83
2023-05-09T07:16:03.960Z,24.88
2023-05-09T07:18:31.012Z,25.90
2023-05-09T07:20:57.807Z,26.17
2023-05-09T07:23:26.309Z,23.67
2023-05-09T07:25:58.876Z,24.52
2023-05-09T07:28:26.294Z,31.75
2023-05-09T07:30:55.664Z,24.80
2023-05-09T07:33:22.713Z,26.23
2023-05-09T07:35:49.755Z,28.50
2023-05-09T07:38:16.612Z,27.00
2023-05-09T07:40:43.465Z,31.42
2023-05-09T07:43:10.310Z,23.67
2023-05-09T07:45:37.221Z,25.05
2023-05-09T07:48:04.386Z,38.08
2023-05-09T07:50:31.478Z,27.02
2023-05-09T07:52:58.405Z,31.20
2023-05-09T07:55:25.281Z,34.45
2023-05-09T07:57:52.130Z,25.23
2023-05-09T08:00:23.618Z,33.05
2023-05-09T08:02:54.244Z,29.38
2023-05-09T08:05:21.300Z,24.17
2023-05-09T08:07:48.149Z,19.67
2023-05-09T08:10:15.069Z,28.17
2023-05-09T08:12:41.946Z,29.52
2023-05-09T08:15:09.154Z,29.83
2023-05-09T08:17:36.036Z,31.30
2023-05-09T08:20:05.489Z,31.88
2023-05-09T08:22:32.374Z,26.65
2023-05-09T08:24:59.209Z,26.05
2023-05-09T08:27:26.322Z,24.77
2023-05-09T08:29:53.317Z,27.75
2023-05-09T08:32:20.278Z,32.85
2023-05-09T08:34:47.096Z,36.45
2023-05-09T08:37:15.277Z,31.67
2023-05-09T08:39:43.098Z,34.80
2023-05-09T08:42:10.507Z,42.65
2023-05-09T08:44:37.300Z,37.05
2023-05-09T08:47:05.180Z,37.45
2023-05-09T08:49:33.368Z,34.42
2023-05-09T08:52:00.560Z,41.00
2023-05-09T08:54:27.701Z,35.42
2023-05-09T08:56:54.855Z,34.10
2023-05-09T08:59:22.901Z,32.10
2023-05-09T09:01:50.186Z,34.00
2023-05-09T09:04:17.254Z,25.83
2023-05-09T09:06:44.399Z,35.00
2023-05-09T09:09:12.946Z,38.88
2023-05-09T09:11:40.797Z,33.25
2023-05-09T09:14:13.868Z,35.65
2023-05-09T09:16:43.720Z,32.15
2023-05-09T09:19:13.184Z,33.05
2023-05-09T09:21:43.362Z,31.55
2023-05-09T09:24:14.657Z,34.22
2023-05-09T09:26:51.907Z,36.95
2023-05-09T09:29:21.282Z,35.15
2023-05-09T09:31:53.280Z,34.25
2023-05-09T09:34:22.925Z,36.17
2023-05-09T09:36:50.790Z,30.23
2023-05-09T09:39:17.930Z,40.13
2023-05-09T09:41:45.234Z,32.33
2023-05-09T09:44:17.005Z,36.42
2023-05-09T09:46:51.168Z,40.78
2023-05-09T09:49:20.413Z,36.80
2023-05-09T09:51:54.375Z,42.40
2023-05-09T09:54:21.778Z,36.05
2023-05-09T09:56:53.358Z,34.15
2023-05-09T09:59:25.666Z,41.63
2023-05-09T10:02:08.398Z,42.78
2023-05-09T10:04:38.747Z,38.53
2023-05-09T10:07:07.768Z,37.28
2023-05-09T10:09:35.864Z,38.83
2023-05-09T10:12:04.878Z,43.22
2023-05-09T10:14:35.008Z,43.22
2023-05-09T10:17:03.716Z,39.90
2023-05-09T10:19:31.958Z,39.13
2023-05-09T10:22:11.857Z,46.08
2023-05-09T10:25:05.709Z,40.55
2023-05-09T10:27:36.674Z,39.15
2023-05-09T10:30:08.825Z,40.95
2023-05-09T10:33:09.258Z,35.38
2023-05-09T10:35:47.113Z,46.58
2023-05-09T10:38:20.421Z,50.10
2023-05-09T10:40:48.162Z,39.75
2023-05-09T10:43:15.327Z,44.22
2023-05-09T10:45:42.585Z,51.83
2023-05-09T10:48:10.043Z,42.95
2023-05-09T10:50:40.469Z,48.50
2023-05-09T10:53:21.684Z,44.85
2023-05-09T10:55:55.372Z,47.88
2023-05-09T10:58:33.748Z,48.28
2023-05-09T11:01:03.694Z,58.05
2023-05-09T11:03:54.970Z,51.92
2023-05-09T11:06:51.271Z,49.22
2023-05-09T11:09:34.969Z,61.05
2023-05-09T11:12:01.850Z,60.33
2023-05-09T11:14:35.717Z,49.38
2023-05-09T11:17:05.064Z,68.90
2023-05-09T11:19:48.107Z,54.75
2023-05-09T11:22:30.797Z,52.30
2023-05-09T11:25:07.789Z,56.03
2023-05-09T11:27:40.826Z,55.08
2023-05-09T11:30:09.170Z,53.88
2023-05-09T11:32:43.893Z,57.33
2023-05-09T11:35:15.549Z,49.60
2023-05-09T11:37:48.228Z,60.13
2023-05-09T11:40:17.683Z,55.85
2023-05-09T11:42:50.029Z,66.82
2023-05-09T11:45:19.810Z,56.20
2023-05-09T11:47:48.118Z,64.18
2023-05-09T11:50:47.695Z,56.38
2023-05-09T11:53:17.702Z,59.25
2023-05-09T11:55:44.612Z,67.18
2023-05-09T11:58:11.814Z,66.03
2023-05-09T12:00:47.081Z,69.68
2023-05-09T12:03:14.309Z,75.97
2023-05-09T12:05:42.675Z,70.40
2023-05-09T12:08:09.809Z,68.07
2023-05-09T12:10:40.196Z,66.78
2023-05-09T12:13:07.283Z,60.17
2023-05-09T12:15:38.034Z,70.05
2023-05-09T12:18:06.909Z,60.53
2023-05-09T12:20:50.234Z,70.85
2023-05-09T12:23:17.476Z,70.00
2023-05-09T12:25:57.287Z,67.20
2023-05-09T12:28:25.696Z,62.00
2023-05-09T12:30:53.661Z,58.47
2023-05-09T12:33:21.720Z,51.33
2023-05-09T12:36:00.635Z,58.47
2023-05-09T12:38:27.514Z,64.72
2023-05-09T12:41:18.173Z,55.90
2023-05-09T12:43:56.026Z,62.35
2023-05-09T12:46:23.058Z,51.42
2023-05-09T12:48:50.235Z,49.60
2023-05-09T12:51:21.659Z,51.47
2023-05-09T12:53:49.170Z,54.00
2023-05-09T12:56:18.739Z,50.78
2023-05-09T12:58:53.396Z,51.22
2023-05-09T13:01:27.466Z,59.03
2023-05-09T13:06:31.682Z,51.08
2023-05-09T13:09:05.468Z,53.35
2023-05-09T13:11:32.363Z,56.03
2023-05-09T13:13:59.346Z,51.85
2023-05-09T13:16:26.253Z,40.95
2023-05-09T13:18:53.108Z,44.72
2023-05-09T13:21:20.194Z,39.90
2023-05-09T13:23:49.429Z,39.70
2023-05-09T13:26:16.340Z,38.97
2023-05-09T13:28:44.469Z,37.38
2023-05-09T13:31:11.355Z,32.30
2023-05-09T13:33:38.583Z,32.75
2023-05-09T13:36:06.623Z,35.75
2023-05-09T13:38:37.340Z,38.13
2023-05-09T13:41:04.625Z,39.80
2023-05-09T13:43:31.476Z,37.05
2023-05-09T13:45:58.447Z,34.10
2023-05-09T13:48:25.341Z,33.75
2023-05-09T13:50:52.326Z,42.72
2023-05-09T13:53:20.145Z,37.53
2023-05-09T13:55:47.211Z,37.25
2023-05-09T13:58:14.413Z,44.55
2023-05-09T14:00:43.718Z,37.13
2023-05-09T14:03:10.527Z,36.00
2023-05-09T14:05:37.407Z,41.55
2023-05-09T14:08:04.487Z,49.30
2023-05-09T14:10:31.315Z,47.15
2023-05-09T14:12:58.727Z,47.35
2023-05-09T14:15:26.005Z,43.03
2023-05-09T14:17:52.916Z,38.83
2023-05-09T14:20:20.904Z,45.63
2023-05-09T14:22:48.487Z,41.85
2023-05-09T14:25:15.489Z,39.35
2023-05-09T14:27:42.352Z,48.10
2023-05-09T14:30:09.700Z,43.38
2023-05-09T14:32:36.615Z,35.88
2023-05-09T14:35:03.927Z,40.65
2023-05-09T14:37:30.879Z,39.80
2023-05-09T14:39:57.781Z,43.00
2023-05-09T14:42:24.749Z,37.15
2023-05-09T14:44:51.681Z,34.63
2023-05-09T14:47:18.540Z,33.45
2023-05-09T14:49:45.593Z,27.48
2023-05-09T14:52:13.765Z,20.88
2023-05-09T14:54:41.253Z,21.77
2023-05-09T14:57:08.396Z,19.48
2023-05-09T14:59:37.109Z,22.05
2023-05-09T15:02:04.297Z,21.77
2023-05-09T15:04:31.483Z,21.33
2023-05-09T15:06:59.251Z,19.17
2023-05-09T15:09:26.903Z,19.98
2023-05-09T15:11:54.914Z,18.25
2023-05-09T15:14:22.019Z,18.77
2023-05-09T15:16:51.521Z,17.05
2023-05-09T15:19:18.754Z,14.13
2023-05-09T15:21:45.590Z,14.60
2023-05-09T15:24:12.750Z,19.73
2023-05-09T15:26:39.723Z,14.30
2023-05-09T15:29:07.090Z,13.20
2023-05-09T15:31:36.531Z,14.13
2023-05-09T15:34:03.654Z,15.60
2023-05-09T15:36:30.525Z,17.13
2023-05-09T15:38:57.369Z,18.48
2023-05-09T15:41:24.425Z,15.60
2023-05-09T15:43:52.296Z,14.18
2023-05-09T15:46:19.537Z,19.27
2023-05-09T15:48:46.394Z,16.20
2023-05-09T15:51:13.982Z,13.65
2023-05-09T15:53:41.030Z,13.70
2023-05-09T15:56:08.847Z,16.40
2023-05-09T15:58:36.106Z,14.40
2023-05-09T16:06:28.683Z,18.08
2023-05-09T16:08:55.568Z,11.43
2023-05-09T16:11:22.672Z,15.07
2023-05-09T16:13:49.550Z,9.93
2023-05-09T16:16:16.746Z,18.40
2023-05-09T16:18:43.625Z,12.60
2023-05-09T16:21:10.592Z,11.05
2023-05-09T16:23:39.530Z,11.15
2023-05-09T16:26:09.427Z,9.45
2023-05-09T16:28:36.419Z,8.60
2023-05-09T16:31:08.116Z,9.95
2023-05-09T16:33:35.221Z,10.95
2023-05-09T16:36:02.108Z,7.10
2023-05-09T16:38:29.083Z,8.45
2023-05-09T16:40:56.375Z,6.95
2023-05-09T16:43:23.308Z,8.73
2023-05-09T16:45:50.305Z,10.90
2023-05-09T16:48:18.645Z,8.20
2023-05-09T16:50:46.255Z,8.90
2023-05-09T16:53:13.102Z,8.02
2023-05-09T16:55:40.090Z,8.85
2023-05-09T16:58:07.636Z,7.68
2023-05-09T17:00:34.645Z,10.43
2023-05-09T17:03:01.701Z,7.22
2023-05-09T17:05:28.812Z,5.75
2023-05-09T17:07:55.684Z,6.40
2023-05-09T17:10:22.770Z,9.48
2023-05-09T17:12:50.431Z,8.95
2023-05-09T17:15:17.633Z,7.15
2023-05-09T17:17:47.343Z,6.60
2023-05-09T17:20:14.566Z,5.85
2023-05-09T17:22:41.637Z,5.80
2023-05-09T17:25:09.188Z,4.93
2023-05-09T17:27:36.153Z,7.07
2023-05-09T17:30:03.352Z,6.25
2023-05-09T17:32:30.373Z,8.07
2023-05-09T17:34:57.353Z,5.18
2023-05-09T17:37:24.313Z,6.13
2023-05-09T17:39:52.034Z,6.68
2023-05-09T17:42:18.911Z,6.25
2023-05-09T17:44:46.236Z,6.70
2023-05-09T17:47:14.306Z,3.88
2023-05-09T17:49:41.493Z,5.05
2023-05-09T17:52:08.654Z,5.22
2023-05-09T17:54:37.379Z,8.00
2023-05-09T17:57:04.487Z,6.35
2023-05-09T17:59:31.316Z,2.80
2023-05-09T18:01:58.229Z,3.22
2023-05-09T18:04:25.960Z,5.13
2023-05-09T18:06:53.331Z,2.88
2023-05-09T18:09:20.235Z,2.17
2023-05-09T18:11:47.212Z,2.55
2023-05-09T18:14:14.115Z,2.60
2023-05-09T18:16:41.340Z,1.92
2023-05-09T18:19:08.292Z,4.97
2023-05-09T18:21:35.420Z,2.35
2023-05-09T18:24:02.465Z,3.25
2023-05-09T18:26:29.625Z,2.92
2023-05-09T18:28:56.774Z,2.20
2023-05-09T18:31:23.832Z,3.08
2023-05-09T18:33:51.185Z,3.00
2023-05-09T18:36:19.194Z,2.88
2023-05-09T18:38:47.748Z,4.10
2023-05-09T18:41:15.836Z,3.35
2023-05-09T18:43:46.103Z,2.05
2023-05-09T18:46:17.713Z,2.90
2023-05-09T18:48:46.444Z,2.78
2023-05-09T18:51:13.400Z,4.47
2023-05-09T18:53:40.511Z,2.97
2023-05-09T18:56:07.736Z,5.97
2023-05-09T18:58:35.400Z,4.28
2023-05-09T19:01:02.754Z,3.45
2023-05-09T19:03:29.770Z,3.83
2023-05-09T19:05:58.066Z,3.15
2023-05-09T19:08:26.227Z,3.22
2023-05-09T19:10:53.072Z,3.95
2023-05-09T19:13:20.001Z,4.20
2023-05-09T19:15:47.789Z,3.63
2023-05-09T19:18:14.768Z,2.85
2023-05-09T19:20:46.505Z,4.40
2023-05-09T19:23:13.378Z,3.08
2023-05-09T19:25:40.183Z,3.97
2023-05-09T19:28:07.023Z,5.20
2023-05-09T19:30:34.411Z,5.18
2023-05-09T19:33:01.396Z,1.63
2023-05-09T19:35:28.285Z,3.35
2023-05-09T19:37:55.275Z,2.25
2023-05-09T19:40:22.225Z,2.88
2023-05-09T19:42:49.111Z,4.38
2023-05-09T19:45:16.250Z,3.63
2023-05-09T19:47:43.665Z,2.92
2023-05-09T19:50:11.136Z,3.72
2023-05-09T19:52:37.932Z,2.58
2023-05-09T19:55:06.093Z,2.92
2023-05-09T19:57:33.206Z,2.78
2023-05-09T20:00:00.091Z,4.22
2023-05-09T20:02:29.475Z,5.03
2023-05-09T20:04:56.419Z,3.60
2023-05-09T20:07:23.945Z,3.75
2023-05-09T20:09:51.126Z,2.85
2023-05-09T20:12:18.085Z,3.60
2023-05-09T20:14:44.991Z,3.20
2023-05-09T20:17:11.791Z,4.97
2023-05-09T20:19:38.645Z,4.47
2023-05-09T20:22:06.601Z,3.30
2023-05-09T20:24:33.452Z,4.30
2023-05-09T20:27:02.255Z,4.32
2023-05-09T20:29:29.204Z,6.40
2023-05-09T20:31:56.185Z,4.35
2023-05-09T20:34:24.602Z,4.82
2023-05-09T20:36:53.791Z,5.32
2023-05-09T20:39:21.123Z,7.03
2023-05-09T20:41:49.434Z,5.63
2023-05-09T20:44:17.780Z,5.03
2023-05-09T20:46:45.390Z,5.05
2023-05-09T20:49:12.684Z,3.67
2023-05-09T20:51:39.644Z,5.35
2023-05-09T20:54:06.718Z,6.22
2023-05-09T20:56:35.517Z,4.63
2023-05-09T20:59:04.074Z,6.70
2023-05-09T21:01:34.295Z,8.30
2023-05-09T21:04:01.339Z,7.05
2023-05-09T21:06:28.241Z,6.50
2023-05-09T21:08:55.175Z,9.13
2023-05-09T21:11:22.371Z,6.95
2023-05-09T21:13:49.298Z,8.32
2023-05-09T21:16:16.162Z,9.45
2023-05-09T21:18:43.032Z,7.38
2023-05-09T21:21:10.061Z,7.70
2023-05-09T21:23:37.173Z,6.65
2023-05-09T21:26:04.187Z,8.68
2023-05-09T21:28:31.495Z,7.78
2023-05-09T21:31:00.741Z,9.10
2023-05-09T21:33:28.015Z,7.53
2023-05-09T21:35:54.952Z,6.70
2023-05-09T21:38:21.787Z,8.43
2023-05-09T21:40:51.537Z,9.57
2023-05-09T21:43:18.486Z,8.50
2023-05-09T21:45:45.988Z,11.02
2023-05-09T21:48:13.255Z,6.65
2023-05-09T21:50:40.189Z,6.70
2023-05-09T21:53:07.051Z,7.00
2023-05-09T21:55:33.845Z,8.25
2023-05-09T21:58:01.042Z,9.10
2023-05-09T22:00:27.862Z,5.70
2023-05-09T22:02:54.816Z,6.03
2023-05-09T22:05:23.265Z,8.18
2023-05-09T22:07:51.154Z,6.60
2023-05-09T22:10:18.370Z,7.75
2023-05-09T22:12:45.860Z,9.90
2023-05-09T22:15:13.119Z,7.88
2023-05-09T22:17:40.047Z,7.82
2023-05-09T22:20:07.438Z,10.43
2023-05-09T22:22:34.401Z,8.80
2023-05-09T22:25:01.217Z,10.05
2023-05-09T22:27:28.129Z,9.70
2023-05-09T22:29:55.479Z,11.25
2023-05-09T22:32:22.429Z,10.13
2023-05-09T22:34:49.291Z,9.82
2023-05-09T22:37:16.232Z,8.02
2023-05-09T22:39:43.086Z,9.50
2023-05-09T22:42:11.303Z,11.48
2023-05-09T22:44:39.178Z,10.80
2023-05-09T22:47:09.811Z,10.13
2023-05-09T22:49:36.688Z,10.73
2023-05-09T22:52:03.708Z,9.40
2023-05-09T22:54:30.593Z,12.50
2023-05-09T22:56:57.427Z,10.32
2023-05-09T22:59:24.324Z,10.50
2023-05-09T23:01:51.854Z,12.02
2023-05-09T23:04:18.678Z,12.98
2023-05-09T23:06:45.631Z,9.20
2023-05-09T23:09:12.813Z,8.73
2023-05-09T23:11:39.948Z,12.13
2023-05-09T23:14:07.377Z,9.07
2023-05-09T23:16:34.364Z,11.45
2023-05-09T23:19:01.128Z,13.20
2023-05-09T23:21:29.134Z,12.85
2023-05-09T23:23:56.202Z,12.32
2023-05-09T23:26:23.059Z,12.88
2023-05-09T23:28:49.932Z,14.20
2023-05-09T23:31:16.898Z,11.27
2023-05-09T23:33:43.987Z,12.85
2023-05-09T23:36:10.882Z,13.30
2023-05-09T23:38:37.709Z,12.63
2023-05-09T23:41:04.537Z,13.95
2023-05-09T23:43:31.360Z,13.98
2023-05-09T23:45:58.219Z,12.18
2023-05-09T23:48:25.807Z,13.68
2023-05-09T23:50:52.637Z,15.23
2023-05-09T23:53:19.553Z,12.88
2023-05-09T23:55:46.390Z,16.90
2023-05-09T23:58:13.215Z,12.70
